createdAt,value
2022-11-17T00:00:50.843Z,9.23
2022-11-17T00:03:19.211Z,9.60
2022-11-17T00:05:47.640Z,9.10
2022-11-17T00:08:17.652Z,8.70
2022-11-17T00:10:46.109Z,8.87
2022-11-17T00:13:32.704Z,9.20
2022-11-17T00:16:01.445Z,9.33
2022-11-17T00:18:47.165Z,8.87
2022-11-17T00:21:21.721Z,9.40
2022-11-17T00:23:51.683Z,8.50
2022-11-17T00:26:22.041Z,8.83
2022-11-17T00:28:54.940Z,9.60
2022-11-17T00:31:42.931Z,8.30
2022-11-17T00:34:16.318Z,8.90
2022-11-17T00:36:46.995Z,9.00
2022-11-17T00:39:18.682Z,8.67
2022-11-17T00:41:49.075Z,7.93
2022-11-17T00:44:18.373Z,8.13
2022-11-17T00:46:49.882Z,7.93
2022-11-17T00:49:25.510Z,8.03
2022-11-17T00:51:55.686Z,8.80
2022-11-17T00:54:29.490Z,8.00
2022-11-17T00:56:57.980Z,7.77
2022-11-17T00:59:26.547Z,7.87
2022-11-17T01:01:55.044Z,9.37
2022-11-17T01:04:23.638Z,8.07
2022-11-17T01:06:52.211Z,8.00
2022-11-17T01:09:23.687Z,7.87
2022-11-17T01:11:56.894Z,8.43
2022-11-17T01:14:30.494Z,7.77
2022-11-17T01:17:00.336Z,7.83
2022-11-17T01:19:29.720Z,8.47
2022-11-17T01:22:00.210Z,7.93
2022-11-17T01:24:28.946Z,8.13
2022-11-17T01:26:59.292Z,7.53
2022-11-17T01:29:27.894Z,7.73
2022-11-17T01:31:56.367Z,7.90
2022-11-17T01:34:32.776Z,7.73
2022-11-17T01:37:18.898Z,8.30
2022-11-17T01:39:47.566Z,7.80
2022-11-17T01:42:20.076Z,8.30
2022-11-17T01:45:04.043Z,7.90
2022-11-17T01:47:41.727Z,7.43
2022-11-17T01:50:26.456Z,8.20
2022-11-17T01:52:59.635Z,7.97
2022-11-17T01:55:34.681Z,7.97
2022-11-17T01:58:08.746Z,8.30
2022-11-17T02:00:37.135Z,7.70
2022-11-17T02:03:07.288Z,7.87
2022-11-17T02:05:45.181Z,7.47
2022-11-17T02:08:13.677Z,7.40
2022-11-17T02:10:47.110Z,7.10
2022-11-17T02:13:20.570Z,8.07
2022-11-17T02:15:49.191Z,7.77
2022-11-17T02:18:18.672Z,7.57
2022-11-17T02:21:06.388Z,7.40
2022-11-17T02:24:36.353Z,7.17
2022-11-17T02:27:55.385Z,8.00
2022-11-17T02:30:24.843Z,7.53
2022-11-17T02:33:03.998Z,7.50
2022-11-17T02:35:42.353Z,7.50
2022-11-17T02:38:26.362Z,8.00
2022-11-17T02:41:10.397Z,7.87
2022-11-17T02:44:03.136Z,7.50
2022-11-17T02:46:41.906Z,8.00
2022-11-17T02:49:18.160Z,7.23
2022-11-17T02:51:49.407Z,8.07
2022-11-17T02:54:18.791Z,7.43
2022-11-17T02:56:47.081Z,7.17
2022-11-17T02:59:21.403Z,7.63
2022-11-17T03:02:27.549Z,7.87
2022-11-17T03:05:09.753Z,7.23
2022-11-17T03:08:05.177Z,7.03
2022-11-17T03:10:45.739Z,7.20
2022-11-17T03:13:22.460Z,6.67
2022-11-17T03:16:01.943Z,6.80
2022-11-17T03:18:37.164Z,6.93
2022-11-17T03:21:12.355Z,7.00
2022-11-17T03:23:45.707Z,6.67
2022-11-17T03:26:17.980Z,6.10
2022-11-17T03:28:48.281Z,5.83
2022-11-17T03:31:19.015Z,5.90
2022-11-17T03:33:51.167Z,6.83
2022-11-17T03:36:24.217Z,6.80
2022-11-17T03:39:00.631Z,6.97
2022-11-17T03:41:33.171Z,6.57
2022-11-17T03:44:05.019Z,6.47
2022-11-17T03:46:37.039Z,6.23
2022-11-17T03:49:18.176Z,6.33
2022-11-17T03:51:46.752Z,6.53
2022-11-17T03:54:16.099Z,6.40
2022-11-17T03:56:55.484Z,6.53
2022-11-17T03:59:29.090Z,6.47
2022-11-17T04:01:59.158Z,5.53
2022-11-17T04:04:47.974Z,5.70
2022-11-17T04:07:16.365Z,6.37
2022-11-17T04:09:44.619Z,5.60
2022-11-17T04:12:30.179Z,5.87
2022-11-17T04:15:16.308Z,4.93
2022-11-17T04:17:46.021Z,5.20
2022-11-17T04:20:14.627Z,5.10
2022-11-17T04:22:43.936Z,4.53
2022-11-17T04:25:35.348Z,4.37
2022-11-17T04:28:21.551Z,5.30
2022-11-17T04:30:50.217Z,4.70
2022-11-17T04:33:20.462Z,4.50
2022-11-17T04:35:51.793Z,4.80
2022-11-17T04:38:20.305Z,5.10
2022-11-17T04:41:02.524Z,5.30
2022-11-17T04:43:30.901Z,5.63
2022-11-17T04:46:01.028Z,6.47
2022-11-17T04:48:30.888Z,5.67
2022-11-17T04:50:59.690Z,5.80
2022-11-17T04:53:27.969Z,6.53
2022-11-17T04:56:00.726Z,6.23
2022-11-17T04:58:29.199Z,6.87
2022-11-17T05:01:12.335Z,6.90
2022-11-17T05:03:47.828Z,6.47
2022-11-17T05:06:18.258Z,6.10
2022-11-17T05:08:46.950Z,5.77
2022-11-17T05:11:34.194Z,5.83
2022-11-17T05:14:03.732Z,5.50
2022-11-17T05:16:50.605Z,5.40
2022-11-17T05:19:24.391Z,5.27
2022-11-17T05:21:54.912Z,5.20
2022-11-17T05:24:23.083Z,5.00
2022-11-17T05:26:52.887Z,4.93
2022-11-17T05:29:23.373Z,4.90
2022-11-17T05:31:52.076Z,5.03
2022-11-17T05:34:21.911Z,4.80
2022-11-17T05:36:50.247Z,4.50
2022-11-17T05:39:18.541Z,4.40
2022-11-17T05:41:46.818Z,4.33
2022-11-17T05:44:15.119Z,4.33
2022-11-17T05:46:43.428Z,4.10
2022-11-17T05:49:11.876Z,4.23
2022-11-17T05:51:41.578Z,3.77
2022-11-17T05:54:10.037Z,3.67
2022-11-17T05:56:42.225Z,3.67
2022-11-17T05:59:27.342Z,3.60
2022-11-17T06:02:02.486Z,3.63
2022-11-17T06:04:31.983Z,3.90
2022-11-17T06:07:03.027Z,3.63
2022-11-17T06:09:35.452Z,3.60
2022-11-17T06:12:06.115Z,3.47
2022-11-17T06:14:35.556Z,3.40
2022-11-17T06:17:07.882Z,3.73
2022-11-17T06:19:42.529Z,3.40
2022-11-17T06:22:13.473Z,3.60
2022-11-17T06:24:43.575Z,3.60
2022-11-17T06:27:13.865Z,3.40
2022-11-17T06:29:45.479Z,3.40
2022-11-17T06:32:15.352Z,3.63
2022-11-17T06:34:49.170Z,3.63
2022-11-17T06:37:22.189Z,3.60
2022-11-17T06:39:50.779Z,3.50
2022-11-17T06:42:40.324Z,3.40
2022-11-17T06:45:10.205Z,3.53
2022-11-17T06:47:38.509Z,3.60
2022-11-17T06:50:08.225Z,3.70
2022-11-17T06:52:38.741Z,3.57
2022-11-17T06:55:08.882Z,3.43
2022-11-17T06:57:37.223Z,3.70
2022-11-17T07:00:07.988Z,3.77
2022-11-17T07:02:37.288Z,3.90
2022-11-17T07:05:06.163Z,3.80
2022-11-17T07:07:34.527Z,3.37
2022-11-17T07:10:04.397Z,3.60
2022-11-17T07:12:32.773Z,3.63
2022-11-17T07:15:01.168Z,3.80
2022-11-17T07:17:29.762Z,3.60
2022-11-17T07:19:58.300Z,3.40
2022-11-17T07:22:26.751Z,3.50
2022-11-17T07:24:55.568Z,3.60
2022-11-17T07:27:26.391Z,3.50
2022-11-17T07:29:55.114Z,3.70
2022-11-17T07:32:23.844Z,3.50
2022-11-17T07:34:52.990Z,3.33
2022-11-17T07:37:21.995Z,3.20
2022-11-17T07:39:50.590Z,3.70
2022-11-17T07:42:19.872Z,4.10
2022-11-17T07:44:50.009Z,3.60
2022-11-17T07:47:18.874Z,3.43
2022-11-17T07:49:47.768Z,3.57
2022-11-17T07:52:16.590Z,3.50
2022-11-17T07:54:45.663Z,3.57
2022-11-17T07:57:17.600Z,3.40
2022-11-17T07:59:46.604Z,3.30
2022-11-17T08:02:16.653Z,3.53
2022-11-17T08:04:46.063Z,3.83
2022-11-17T08:07:14.520Z,3.83
2022-11-17T08:09:43.265Z,3.47
2022-11-17T08:12:11.884Z,3.10
2022-11-17T08:14:40.359Z,3.63
2022-11-17T08:17:10.251Z,3.40
2022-11-17T08:19:41.279Z,3.90
2022-11-17T08:22:10.252Z,3.57
2022-11-17T08:24:39.013Z,3.37
2022-11-17T08:27:07.916Z,3.20
2022-11-17T08:29:37.138Z,3.30
2022-11-17T08:32:07.296Z,3.77
2022-11-17T08:34:37.093Z,3.47
2022-11-17T08:37:08.986Z,3.63
2022-11-17T08:39:37.893Z,4.00
2022-11-17T08:42:06.683Z,3.63
2022-11-17T08:44:35.198Z,3.47
2022-11-17T08:47:04.541Z,3.70
2022-11-17T08:49:33.504Z,3.73
2022-11-17T08:52:02.084Z,3.50
2022-11-17T08:54:32.454Z,3.53
2022-11-17T08:57:01.310Z,3.50
2022-11-17T08:59:29.839Z,3.33
2022-11-17T09:01:58.326Z,3.80
2022-11-17T09:04:27.316Z,3.20
2022-11-17T09:06:56.384Z,3.37
2022-11-17T09:09:26.053Z,3.57
2022-11-17T09:11:56.788Z,3.17
2022-11-17T09:14:25.890Z,2.90
2022-11-17T09:16:56.170Z,3.00
2022-11-17T09:19:25.287Z,2.90
2022-11-17T09:21:54.168Z,3.03
2022-11-17T09:24:24.009Z,3.30
2022-11-17T09:26:57.620Z,3.17
2022-11-17T09:29:27.492Z,3.37
2022-11-17T09:31:56.411Z,2.97
2022-11-17T09:34:25.718Z,2.43
2022-11-17T09:36:55.019Z,2.57
2022-11-17T09:39:23.679Z,2.60
2022-11-17T09:41:56.459Z,2.70
2022-11-17T09:44:39.954Z,2.77
2022-11-17T09:47:20.938Z,2.60
2022-11-17T09:49:59.196Z,2.83
